createdAt,value
2022-09-29T00:00:38.985Z,5.10
2022-09-29T00:06:02.471Z,5.30
2022-09-29T00:11:10.926Z,3.90
2022-09-29T00:16:14.504Z,4.00
2022-09-29T00:21:20.030Z,3.60
2022-09-29T00:26:25.449Z,3.10
2022-09-29T00:36:33.601Z,3.70
2022-09-29T00:41:39.091Z,3.10
2022-09-29T00:47:03.264Z,2.80
2022-09-29T00:52:31.965Z,3.40
2022-09-29T00:57:45.107Z,3.10
2022-09-29T01:02:56.306Z,3.00
2022-09-29T01:08:09.034Z,2.90
2022-09-29T01:13:12.960Z,3.20
2022-09-29T01:18:16.577Z,3.00
2022-09-29T01:23:57.675Z,3.20
2022-09-29T01:29:22.797Z,3.20
2022-09-29T01:34:53.243Z,3.70
2022-09-29T01:40:17.124Z,4.20
2022-09-29T01:45:34.587Z,3.00
2022-09-29T01:50:50.895Z,3.90
2022-09-29T01:56:00.556Z,3.50
2022-09-29T02:01:10.609Z,4.10
2022-09-29T02:06:22.434Z,3.50
2022-09-29T02:11:27.793Z,3.70
2022-09-29T02:16:37.431Z,3.90
2022-09-29T02:21:41.071Z,4.50
2022-09-29T02:26:45.464Z,3.00
2022-09-29T02:31:49.904Z,6.00
2022-09-29T02:37:14.557Z,4.90
2022-09-29T02:47:48.105Z,4.00
2022-09-29T02:53:29.818Z,4.40
2022-09-29T02:58:48.349Z,4.20
2022-09-29T03:03:51.942Z,5.00
2022-09-29T03:08:55.930Z,7.30
2022-09-29T03:13:59.651Z,19.80
2022-09-29T03:19:05.588Z,25.60
2022-09-29T03:24:08.933Z,26.50
2022-09-29T03:29:12.252Z,22.40
2022-09-29T03:34:15.554Z,24.00
2022-09-29T03:39:18.929Z,16.20
2022-09-29T03:44:22.895Z,19.00
2022-09-29T03:49:26.327Z,8.70
2022-09-29T03:54:29.720Z,9.90
2022-09-29T03:59:33.030Z,14.70
2022-09-29T04:04:36.548Z,10.70
2022-09-29T04:09:39.861Z,6.00
2022-09-29T04:14:43.473Z,4.80
2022-09-29T04:19:46.787Z,5.80
2022-09-29T04:24:51.224Z,5.90
2022-09-29T04:29:54.738Z,4.50
2022-09-29T04:34:58.266Z,6.40
2022-09-29T04:40:03.455Z,5.20
2022-09-29T04:45:07.332Z,6.20
2022-09-29T04:50:10.644Z,7.30
2022-09-29T04:55:14.368Z,8.10
2022-09-29T05:00:18.581Z,8.40
2022-09-29T05:05:22.318Z,7.70
2022-09-29T05:10:26.856Z,7.50
2022-09-29T05:20:40.441Z,8.90
2022-09-29T05:25:46.518Z,6.60
2022-09-29T05:30:49.932Z,7.40
2022-09-29T05:35:53.246Z,9.60
2022-09-29T05:40:56.610Z,8.90
2022-09-29T05:46:02.445Z,9.50
2022-09-29T05:51:12.597Z,9.50
2022-09-29T05:56:22.008Z,9.20
2022-09-29T06:01:26.666Z,8.90
2022-09-29T06:06:30.615Z,9.30
2022-09-29T06:11:34.349Z,14.50
2022-09-29T06:16:37.829Z,12.40
2022-09-29T06:21:41.471Z,10.60
2022-09-29T06:26:46.457Z,8.10
2022-09-29T06:31:50.906Z,10.20
2022-09-29T06:37:13.218Z,14.30
2022-09-29T06:42:16.524Z,13.00
2022-09-29T06:47:19.834Z,9.00
2022-09-29T06:52:25.460Z,11.40
2022-09-29T06:57:32.601Z,9.10
2022-09-29T07:02:36.282Z,7.00
2022-09-29T07:07:39.633Z,5.70
2022-09-29T07:12:47.101Z,5.30
2022-09-29T07:17:53.420Z,5.20
2022-09-29T07:22:56.732Z,4.70
2022-09-29T07:28:00.145Z,4.20
2022-09-29T07:33:04.103Z,3.70
2022-09-29T07:38:07.384Z,3.80
2022-09-29T07:43:10.691Z,3.00
2022-09-29T07:48:14.014Z,3.20
2022-09-29T07:53:17.314Z,3.90
2022-09-29T07:58:20.726Z,3.30
2022-09-29T08:03:26.087Z,2.90
2022-09-29T08:08:29.704Z,3.00
2022-09-29T08:13:33.996Z,5.30
2022-09-29T08:18:37.348Z,4.30
2022-09-29T08:23:43.139Z,4.80
2022-09-29T08:28:58.932Z,4.80
2022-09-29T08:34:05.407Z,4.60
2022-09-29T08:39:10.909Z,3.70
2022-09-29T08:44:38.780Z,3.40
2022-09-29T08:50:51.901Z,2.70
2022-09-29T08:56:04.842Z,2.90
2022-09-29T09:01:29.488Z,2.20
2022-09-29T09:06:41.773Z,2.30
2022-09-29T09:12:05.257Z,2.60
2022-09-29T09:17:33.652Z,2.40
2022-09-29T09:22:55.191Z,2.20
2022-09-29T09:28:04.751Z,2.30
2022-09-29T09:33:30.316Z,2.70
2022-09-29T09:38:55.000Z,3.00
2022-09-29T09:44:06.291Z,3.10
2022-09-29T09:49:24.249Z,1.90
2022-09-29T09:54:52.031Z,1.90
2022-09-29T10:00:16.250Z,2.50
2022-09-29T10:05:26.813Z,1.80
2022-09-29T10:10:31.762Z,2.00
2022-09-29T10:15:45.722Z,1.80
2022-09-29T10:20:49.441Z,1.90
2022-09-29T10:26:17.021Z,2.30
2022-09-29T10:31:27.293Z,4.80
2022-09-29T10:36:34.506Z,4.60
2022-09-29T10:41:54.913Z,8.40
2022-09-29T10:46:58.837Z,5.50
2022-09-29T10:52:24.060Z,5.20
2022-09-29T10:57:31.134Z,16.20
2022-09-29T11:02:39.100Z,5.40
2022-09-29T11:07:49.004Z,5.40
2022-09-29T11:12:52.763Z,6.40
2022-09-29T11:17:57.306Z,13.80
2022-09-29T11:23:06.656Z,8.00
2022-09-29T11:28:38.335Z,8.20
2022-09-29T11:34:00.086Z,6.60
2022-09-29T11:39:36.356Z,8.80
2022-09-29T11:44:58.721Z,22.30
2022-09-29T11:50:15.443Z,23.20
2022-09-29T11:55:49.277Z,11.00
2022-09-29T12:01:15.515Z,10.00
2022-09-29T12:06:34.804Z,7.50
2022-09-29T12:12:28.830Z,8.60
2022-09-29T12:17:38.322Z,6.80
2022-09-29T12:22:46.534Z,5.90
2022-09-29T12:27:50.916Z,10.00
2022-09-29T12:33:19.421Z,7.20
2022-09-29T12:38:36.456Z,7.60
2022-09-29T12:43:46.215Z,6.10
2022-09-29T12:49:04.987Z,5.50
2022-09-29T12:54:36.870Z,5.60
2022-09-29T13:00:06.289Z,4.50
2022-09-29T13:05:20.046Z,4.50
2022-09-29T13:11:04.730Z,4.80
2022-09-29T13:21:40.021Z,3.90
2022-09-29T13:27:01.564Z,3.30
2022-09-29T13:32:05.178Z,3.00
2022-09-29T13:37:20.542Z,3.40
2022-09-29T13:42:29.103Z,3.50
2022-09-29T13:47:34.471Z,6.50
2022-09-29T13:52:41.157Z,7.20
2022-09-29T13:57:52.205Z,10.80
2022-09-29T14:03:05.206Z,13.30
2022-09-29T14:08:08.500Z,8.70
2022-09-29T14:13:14.976Z,7.70
2022-09-29T14:18:41.916Z,3.80
2022-09-29T14:23:46.228Z,8.20
2022-09-29T14:28:53.581Z,7.80
2022-09-29T14:33:57.917Z,13.30
2022-09-29T14:39:25.576Z,3.40
2022-09-29T14:44:49.084Z,12.00
2022-09-29T14:50:17.276Z,5.60
2022-09-29T14:55:39.223Z,29.90
2022-09-29T15:00:43.189Z,25.30
2022-09-29T15:05:46.869Z,13.20
2022-09-29T15:10:54.077Z,9.40
2022-09-29T15:16:18.067Z,6.50
2022-09-29T15:21:39.915Z,19.30
2022-09-29T15:26:46.788Z,16.20
2022-09-29T15:31:50.323Z,16.80
2022-09-29T15:36:56.573Z,17.50
2022-09-29T15:42:02.335Z,30.50
2022-09-29T15:47:05.582Z,14.00
2022-09-29T15:52:15.445Z,12.00
2022-09-29T15:57:58.287Z,10.10
2022-09-29T16:03:11.219Z,10.70
2022-09-29T16:08:23.338Z,19.90
2022-09-29T16:13:31.459Z,19.60
2022-09-29T16:18:45.215Z,21.10
2022-09-29T16:24:31.129Z,13.50
2022-09-29T16:29:36.623Z,12.40
2022-09-29T16:34:39.909Z,12.90
2022-09-29T16:39:46.355Z,13.10
2022-09-29T16:44:53.490Z,16.60
2022-09-29T16:50:03.746Z,30.00
2022-09-29T16:55:20.162Z,44.00
2022-09-29T17:00:27.455Z,14.30
2022-09-29T17:05:35.310Z,10.70
2022-09-29T17:10:40.685Z,13.00
2022-09-29T17:15:46.676Z,8.70
2022-09-29T17:20:52.189Z,8.00
2022-09-29T17:26:15.882Z,10.00
2022-09-29T17:31:19.758Z,10.30
2022-09-29T17:36:24.443Z,9.40
2022-09-29T17:41:28.470Z,10.60
2022-09-29T17:46:32.130Z,10.10
2022-09-29T17:51:35.706Z,10.90
2022-09-29T17:56:44.240Z,12.10
2022-09-29T18:01:50.288Z,13.10
2022-09-29T18:06:54.037Z,13.50
2022-09-29T18:11:58.899Z,14.00
2022-09-29T18:17:06.022Z,13.80
2022-09-29T18:22:09.396Z,15.30
2022-09-29T18:27:15.072Z,14.70
2022-09-29T18:32:19.821Z,13.50
2022-09-29T18:37:23.222Z,12.60
2022-09-29T18:42:28.098Z,15.60
2022-09-29T18:47:31.378Z,15.00
2022-09-29T18:52:42.573Z,16.00
2022-09-29T18:57:47.624Z,15.60
2022-09-29T19:02:51.718Z,16.70
2022-09-29T19:07:58.678Z,21.70
2022-09-29T19:13:04.771Z,25.60
2022-09-29T19:18:08.959Z,19.10
2022-09-29T19:23:12.574Z,16.30
2022-09-29T19:28:17.652Z,16.50
2022-09-29T19:33:22.782Z,13.90
2022-09-29T19:38:26.193Z,14.50
2022-09-29T19:43:29.570Z,13.20
2022-09-29T19:48:32.919Z,14.60
2022-09-29T19:53:36.133Z,14.30
2022-09-29T19:58:41.997Z,14.40
2022-09-29T20:03:48.284Z,14.50
2022-09-29T20:08:51.793Z,16.00
2022-09-29T20:13:55.103Z,14.80
2022-09-29T20:18:58.829Z,15.40
2022-09-29T20:24:02.236Z,16.20
2022-09-29T20:29:05.959Z,14.70
2022-09-29T20:34:11.415Z,17.40
2022-09-29T20:39:21.931Z,13.60
2022-09-29T20:44:26.526Z,15.80
2022-09-29T20:49:29.749Z,23.40
2022-09-29T20:54:33.366Z,18.30
2022-09-29T20:59:36.884Z,17.50
2022-09-29T21:04:40.397Z,15.70
2022-09-29T21:09:43.759Z,15.20
2022-09-29T21:14:47.223Z,14.80
2022-09-29T21:19:50.634Z,15.10
2022-09-29T21:24:53.948Z,16.00
2022-09-29T21:29:57.256Z,16.20
2022-09-29T21:35:01.592Z,16.90
2022-09-29T21:45:10.580Z,16.60
2022-09-29T21:50:14.132Z,16.10
2022-09-29T21:55:17.703Z,16.70
2022-09-29T22:00:21.318Z,19.20
2022-09-29T22:05:24.630Z,17.70
2022-09-29T22:10:28.351Z,16.70
2022-09-29T22:15:33.508Z,19.80
2022-09-29T22:20:38.577Z,19.30
2022-09-29T22:25:46.167Z,20.40
2022-09-29T22:30:49.990Z,16.90
2022-09-29T22:35:57.507Z,16.50
2022-09-29T22:41:00.916Z,17.70
2022-09-29T22:46:04.809Z,13.80
2022-09-29T22:51:09.173Z,16.90
2022-09-29T22:56:17.035Z,17.70
2022-09-29T23:01:22.287Z,17.90
2022-09-29T23:06:25.996Z,17.60
2022-09-29T23:11:31.632Z,49.70
2022-09-29T23:16:35.029Z,24.40
2022-09-29T23:21:38.561Z,26.50
2022-09-29T23:26:41.973Z,35.80
2022-09-29T23:31:49.444Z,27.80
2022-09-29T23:36:53.612Z,28.30
2022-09-29T23:41:56.929Z,26.40
2022-09-29T23:47:00.407Z,24.80
2022-09-29T23:52:04.876Z,37.00
